sensor_id;sensor_type;location;lat;lon;timestamp;temperature;humidity
78915;SHT31;68314;49.782;9.418;2023-03-01T13:41:59;24.43;16.57
78915;SHT31;68314;49.782;9.418;2023-03-01T13:45:36;25.47;15.15
78915;SHT31;68314;49.782;9.418;2023-03-01T13:51:35;25.54;15.39
78915;SHT31;68314;49.782;9.418;2023-03-01T13:55:18;25.89;15.11
78915;SHT31;68314;49.782;9.418;2023-03-01T13:58:02;24.81;16.47
78915;SHT31;68314;49.782;9.418;2023-03-01T14:00:42;24.89;16.21
78915;SHT31;68314;49.782;9.418;2023-03-01T14:03:21;24.71;16.04
78915;SHT31;68314;49.782;9.418;2023-03-01T14:06:04;24.65;16.24
78915;SHT31;68314;49.782;9.418;2023-03-01T14:08:50;24.60;16.23
78915;SHT31;68314;49.782;9.418;2023-03-01T14:11:58;24.53;16.19
78915;SHT31;68314;49.782;9.418;2023-03-01T14:14:46;24.45;17.84
78915;SHT31;68314;49.782;9.418;2023-03-01T14:20:45;24.60;19.10
78915;SHT31;68314;49.782;9.418;2023-03-01T14:23:25;25.79;15.81
78915;SHT31;68314;49.782;9.418;2023-03-01T14:26:09;26.78;14.90
78915;SHT31;68314;49.782;9.418;2023-03-01T14:28:53;27.44;14.75
78915;SHT31;68314;49.782;9.418;2023-03-01T14:31:35;27.76;14.54
78915;SHT31;68314;49.782;9.418;2023-03-01T14:34:24;27.95;14.12
78915;SHT31;68314;49.782;9.418;2023-03-01T14:37:19;28.08;14.03
78915;SHT31;68314;49.782;9.418;2023-03-01T14:40:00;28.20;13.91
78915;SHT31;68314;49.782;9.418;2023-03-01T14:42:40;28.31;13.97
78915;SHT31;68314;49.782;9.418;2023-03-01T14:45:26;28.46;13.78
78915;SHT31;68314;49.782;9.418;2023-03-01T14:48:07;28.63;13.91
78915;SHT31;68314;49.782;9.418;2023-03-01T14:50:46;28.74;13.78
78915;SHT31;68314;49.782;9.418;2023-03-01T14:53:28;28.79;13.64
78915;SHT31;68314;49.782;9.418;2023-03-01T14:56:21;28.82;13.72
78915;SHT31;68314;49.782;9.418;2023-03-01T14:59:01;28.93;13.83
78915;SHT31;68314;49.782;9.418;2023-03-01T15:01:46;29.04;13.57
78915;SHT31;68314;49.782;9.418;2023-03-01T15:04:28;29.08;13.30
78915;SHT31;68314;49.782;9.418;2023-03-01T15:07:12;29.07;13.33
78915;SHT31;68314;49.782;9.418;2023-03-01T15:09:52;29.07;13.41
78915;SHT31;68314;49.782;9.418;2023-03-01T15:12:37;29.05;13.29
78915;SHT31;68314;49.782;9.418;2023-03-01T15:15:22;28.99;13.37
78915;SHT31;68314;49.782;9.418;2023-03-01T15:18:15;28.93;13.38
78915;SHT31;68314;49.782;9.418;2023-03-01T15:21:06;28.88;13.35
78915;SHT31;68314;49.782;9.418;2023-03-01T15:23:49;28.84;13.34
78915;SHT31;68314;49.782;9.418;2023-03-01T15:26:31;28.82;13.49
78915;SHT31;68314;49.782;9.418;2023-03-01T15:29:17;28.81;13.38
78915;SHT31;68314;49.782;9.418;2023-03-01T15:32:02;28.66;13.25
78915;SHT31;68314;49.782;9.418;2023-03-01T15:34:47;28.40;13.20
78915;SHT31;68314;49.782;9.418;2023-03-01T15:37:39;28.02;13.49
78915;SHT31;68314;49.782;9.418;2023-03-01T15:40:22;27.63;14.00
78915;SHT31;68314;49.782;9.418;2023-03-01T15:43:06;27.52;14.15
78915;SHT31;68314;49.782;9.418;2023-03-01T15:45:55;27.51;14.46
78915;SHT31;68314;49.782;9.418;2023-03-01T15:48:35;27.48;14.32
78915;SHT31;68314;49.782;9.418;2023-03-01T15:51:26;27.32;14.34
78915;SHT31;68314;49.782;9.418;2023-03-01T15:54:17;27.00;14.43
78915;SHT31;68314;49.782;9.418;2023-03-01T15:56:57;26.51;14.73
78915;SHT31;68314;49.782;9.418;2023-03-01T15:59:36;26.04;14.93
78915;SHT31;68314;49.782;9.418;2023-03-01T16:02:17;25.77;15.52
78915;SHT31;68314;49.782;9.418;2023-03-01T16:04:56;25.57;15.41
78915;SHT31;68314;49.782;9.418;2023-03-01T16:07:40;25.39;15.96
78915;SHT31;68314;49.782;9.418;2023-03-01T16:10:19;25.27;16.02
78915;SHT31;68314;49.782;9.418;2023-03-01T16:12:58;25.11;16.02
78915;SHT31;68314;49.782;9.418;2023-03-01T16:15:38;24.86;16.21
78915;SHT31;68314;49.782;9.418;2023-03-01T16:18:17;24.59;16.23
78915;SHT31;68314;49.782;9.418;2023-03-01T16:20:56;24.08;16.52
78915;SHT31;68314;49.782;9.418;2023-03-01T16:23:40;23.63;17.07
78915;SHT31;68314;49.782;9.418;2023-03-01T16:26:19;22.92;17.65
78915;SHT31;68314;49.782;9.418;2023-03-01T16:28:58;22.52;18.10
78915;SHT31;68314;49.782;9.418;2023-03-01T16:31:37;22.12;18.49
78915;SHT31;68314;49.782;9.418;2023-03-01T16:34:16;21.10;19.31
78915;SHT31;68314;49.782;9.418;2023-03-01T16:36:55;19.78;21.04
78915;SHT31;68314;49.782;9.418;2023-03-01T16:39:39;19.05;21.44
78915;SHT31;68314;49.782;9.418;2023-03-01T16:42:18;18.23;22.55
78915;SHT31;68314;49.782;9.418;2023-03-01T16:44:57;16.95;24.52
78915;SHT31;68314;49.782;9.418;2023-03-01T16:47:53;15.88;25.82
78915;SHT31;68314;49.782;9.418;2023-03-01T16:50:32;15.39;26.63
78915;SHT31;68314;49.782;9.418;2023-03-01T16:53:11;15.00;27.32
78915;SHT31;68314;49.782;9.418;2023-03-01T16:55:58;14.68;28.02
78915;SHT31;68314;49.782;9.418;2023-03-01T16:58:39;14.42;28.45
78915;SHT31;68314;49.782;9.418;2023-03-01T17:01:19;14.17;28.87
78915;SHT31;68314;49.782;9.418;2023-03-01T17:04:11;13.94;29.31
78915;SHT31;68314;49.782;9.418;2023-03-01T17:06:50;13.69;29.80
78915;SHT31;68314;49.782;9.418;2023-03-01T17:09:29;13.46;30.09
78915;SHT31;68314;49.782;9.418;2023-03-01T17:12:14;13.24;30.70
78915;SHT31;68314;49.782;9.418;2023-03-01T17:14:53;13.09;30.93
78915;SHT31;68314;49.782;9.418;2023-03-01T17:17:32;12.94;31.31
78915;SHT31;68314;49.782;9.418;2023-03-01T17:20:12;12.81;31.49
78915;SHT31;68314;49.782;9.418;2023-03-01T17:22:51;12.67;31.74
78915;SHT31;68314;49.782;9.418;2023-03-01T17:25:31;12.51;31.83
78915;SHT31;68314;49.782;9.418;2023-03-01T17:28:15;12.37;32.05
78915;SHT31;68314;49.782;9.418;2023-03-01T17:30:54;12.25;32.55
78915;SHT31;68314;49.782;9.418;2023-03-01T17:33:33;12.12;32.86
78915;SHT31;68314;49.782;9.418;2023-03-01T17:36:12;11.98;33.05
78915;SHT31;68314;49.782;9.418;2023-03-01T17:38:51;11.85;33.48
78915;SHT31;68314;49.782;9.418;2023-03-01T17:41:30;11.75;33.82
78915;SHT31;68314;49.782;9.418;2023-03-01T17:44:14;11.66;33.82
78915;SHT31;68314;49.782;9.418;2023-03-01T17:46:53;11.57;33.84
78915;SHT31;68314;49.782;9.418;2023-03-01T17:49:32;11.46;33.96
78915;SHT31;68314;49.782;9.418;2023-03-01T17:52:11;11.35;34.13
78915;SHT31;68314;49.782;9.418;2023-03-01T17:54:55;11.24;34.43
78915;SHT31;68314;49.782;9.418;2023-03-01T17:57:37;11.13;34.68
78915;SHT31;68314;49.782;9.418;2023-03-01T18:00:22;11.03;34.95
78915;SHT31;68314;49.782;9.418;2023-03-01T18:03:02;10.93;35.13
78915;SHT31;68314;49.782;9.418;2023-03-01T18:05:41;10.85;35.56
78915;SHT31;68314;49.782;9.418;2023-03-01T18:08:20;10.76;35.79
78915;SHT31;68314;49.782;9.418;2023-03-01T18:10:59;10.70;35.97
78915;SHT31;68314;49.782;9.418;2023-03-01T18:13:40;10.64;36.04
78915;SHT31;68314;49.782;9.418;2023-03-01T18:16:24;10.56;36.04
78915;SHT31;68314;49.782;9.418;2023-03-01T18:19:03;10.48;36.51
78915;SHT31;68314;49.782;9.418;2023-03-01T18:21:42;10.39;36.57
78915;SHT31;68314;49.782;9.418;2023-03-01T18:24:21;10.27;36.78
78915;SHT31;68314;49.782;9.418;2023-03-01T18:27:00;10.15;37.05
78915;SHT31;68314;49.782;9.418;2023-03-01T18:29:39;10.04;37.32
78915;SHT31;68314;49.782;9.418;2023-03-01T18:32:23;9.95;37.58
78915;SHT31;68314;49.782;9.418;2023-03-01T18:35:04;9.86;37.81
78915;SHT31;68314;49.782;9.418;2023-03-01T18:37:43;9.77;37.95
78915;SHT31;68314;49.782;9.418;2023-03-01T18:40:22;9.67;38.09
78915;SHT31;68314;49.782;9.418;2023-03-01T18:43:00;9.57;38.33
78915;SHT31;68314;49.782;9.418;2023-03-01T18:45:39;9.48;38.56
78915;SHT31;68314;49.782;9.418;2023-03-01T18:48:25;9.41;39.06
78915;SHT31;68314;49.782;9.418;2023-03-01T18:51:09;9.31;39.26
78915;SHT31;68314;49.782;9.418;2023-03-01T18:53:48;9.24;39.48
78915;SHT31;68314;49.782;9.418;2023-03-01T18:56:29;9.18;39.45
78915;SHT31;68314;49.782;9.418;2023-03-01T18:59:08;9.14;39.48
78915;SHT31;68314;49.782;9.418;2023-03-01T19:01:46;9.08;39.55
78915;SHT31;68314;49.782;9.418;2023-03-01T19:04:30;9.03;39.69
78915;SHT31;68314;49.782;9.418;2023-03-01T19:07:09;8.96;39.75
78915;SHT31;68314;49.782;9.418;2023-03-01T19:09:48;8.89;39.89
78915;SHT31;68314;49.782;9.418;2023-03-01T19:12:27;8.82;39.90
78915;SHT31;68314;49.782;9.418;2023-03-01T19:15:06;8.74;39.97
78915;SHT31;68314;49.782;9.418;2023-03-01T19:17:47;8.65;40.35
78915;SHT31;68314;49.782;9.418;2023-03-01T19:20:31;8.58;40.47
78915;SHT31;68314;49.782;9.418;2023-03-01T19:23:11;8.51;40.63
78915;SHT31;68314;49.782;9.418;2023-03-01T19:25:50;8.47;40.64
78915;SHT31;68314;49.782;9.418;2023-03-01T19:28:29;8.43;40.69
78915;SHT31;68314;49.782;9.418;2023-03-01T19:31:12;8.38;40.74
78915;SHT31;68314;49.782;9.418;2023-03-01T19:33:52;8.32;40.85
78915;SHT31;68314;49.782;9.418;2023-03-01T19:36:52;8.26;41.14
78915;SHT31;68314;49.782;9.418;2023-03-01T19:39:30;8.21;41.27
78915;SHT31;68314;49.782;9.418;2023-03-01T19:42:09;8.17;41.35
78915;SHT31;68314;49.782;9.418;2023-03-01T19:44:48;8.14;41.28
78915;SHT31;68314;49.782;9.418;2023-03-01T19:47:27;8.11;41.32
78915;SHT31;68314;49.782;9.418;2023-03-01T19:50:07;8.07;41.29
78915;SHT31;68314;49.782;9.418;2023-03-01T19:52:51;8.01;41.27
78915;SHT31;68314;49.782;9.418;2023-03-01T19:55:30;7.95;41.26
78915;SHT31;68314;49.782;9.418;2023-03-01T19:58:09;7.91;41.52
78915;SHT31;68314;49.782;9.418;2023-03-01T20:00:48;7.87;41.71
78915;SHT31;68314;49.782;9.418;2023-03-01T20:03:32;7.84;41.67
78915;SHT31;68314;49.782;9.418;2023-03-01T20:06:13;7.81;41.89
78915;SHT31;68314;49.782;9.418;2023-03-01T20:08:58;7.80;41.97
78915;SHT31;68314;49.782;9.418;2023-03-01T20:11:51;7.78;41.68
78915;SHT31;68314;49.782;9.418;2023-03-01T20:14:30;7.75;41.91
78915;SHT31;68314;49.782;9.418;2023-03-01T20:17:13;7.71;41.96
78915;SHT31;68314;49.782;9.418;2023-03-01T20:19:52;7.68;41.99
78915;SHT31;68314;49.782;9.418;2023-03-01T20:22:31;7.67;42.14
78915;SHT31;68314;49.782;9.418;2023-03-01T20:25:15;7.63;41.81
78915;SHT31;68314;49.782;9.418;2023-03-01T20:27:54;7.60;42.02
78915;SHT31;68314;49.782;9.418;2023-03-01T20:30:33;7.58;42.20
78915;SHT31;68314;49.782;9.418;2023-03-01T20:33:12;7.56;42.33
78915;SHT31;68314;49.782;9.418;2023-03-01T20:35:50;7.53;42.34
78915;SHT31;68314;49.782;9.418;2023-03-01T20:38:29;7.50;42.52
78915;SHT31;68314;49.782;9.418;2023-03-01T20:41:13;7.48;42.41
78915;SHT31;68314;49.782;9.418;2023-03-01T20:43:52;7.45;42.42
78915;SHT31;68314;49.782;9.418;2023-03-01T20:46:32;7.41;42.51
78915;SHT31;68314;49.782;9.418;2023-03-01T20:49:11;7.37;42.60
78915;SHT31;68314;49.782;9.418;2023-03-01T20:51:50;7.32;42.51
78915;SHT31;68314;49.782;9.418;2023-03-01T20:54:29;7.27;42.64
78915;SHT31;68314;49.782;9.418;2023-03-01T20:57:13;7.23;42.89
78915;SHT31;68314;49.782;9.418;2023-03-01T20:59:52;7.18;43.05
78915;SHT31;68314;49.782;9.418;2023-03-01T21:02:31;7.16;43.34
78915;SHT31;68314;49.782;9.418;2023-03-01T21:05:14;7.14;43.20
78915;SHT31;68314;49.782;9.418;2023-03-01T21:07:54;7.13;43.30
78915;SHT31;68314;49.782;9.418;2023-03-01T21:10:34;7.12;43.23
78915;SHT31;68314;49.782;9.418;2023-03-01T21:13:18;7.10;43.20
78915;SHT31;68314;49.782;9.418;2023-03-01T21:16:04;7.09;43.54
78915;SHT31;68314;49.782;9.418;2023-03-01T21:18:45;7.08;43.26
78915;SHT31;68314;49.782;9.418;2023-03-01T21:21:24;7.07;43.39
78915;SHT31;68314;49.782;9.418;2023-03-01T21:24:04;7.06;43.51
78915;SHT31;68314;49.782;9.418;2023-03-01T21:26:43;7.05;43.47
78915;SHT31;68314;49.782;9.418;2023-03-01T21:29:27;7.04;43.56
78915;SHT31;68314;49.782;9.418;2023-03-01T21:32:07;7.02;43.59
78915;SHT31;68314;49.782;9.418;2023-03-01T21:34:47;7.00;43.87
78915;SHT31;68314;49.782;9.418;2023-03-01T21:37:26;6.97;43.94
78915;SHT31;68314;49.782;9.418;2023-03-01T21:40:06;6.94;43.85
78915;SHT31;68314;49.782;9.418;2023-03-01T21:42:45;6.91;43.84
78915;SHT31;68314;49.782;9.418;2023-03-01T21:45:29;6.86;44.11
78915;SHT31;68314;49.782;9.418;2023-03-01T21:48:08;6.83;44.14
78915;SHT31;68314;49.782;9.418;2023-03-01T21:50:53;6.80;44.15
78915;SHT31;68314;49.782;9.418;2023-03-01T21:53:33;6.77;44.18
78915;SHT31;68314;49.782;9.418;2023-03-01T21:56:15;6.73;44.36
78915;SHT31;68314;49.782;9.418;2023-03-01T21:58:56;6.67;44.40
78915;SHT31;68314;49.782;9.418;2023-03-01T22:01:40;6.64;44.40
78915;SHT31;68314;49.782;9.418;2023-03-01T22:04:19;6.60;44.45
78915;SHT31;68314;49.782;9.418;2023-03-01T22:06:58;6.55;44.63
78915;SHT31;68314;49.782;9.418;2023-03-01T22:09:37;6.49;44.56
78915;SHT31;68314;49.782;9.418;2023-03-01T22:12:16;6.43;44.65
78915;SHT31;68314;49.782;9.418;2023-03-01T22:14:55;6.41;45.00
78915;SHT31;68314;49.782;9.418;2023-03-01T22:17:39;6.39;44.97
78915;SHT31;68314;49.782;9.418;2023-03-01T22:20:18;6.36;44.95
78915;SHT31;68314;49.782;9.418;2023-03-01T22:22:57;6.33;45.00
78915;SHT31;68314;49.782;9.418;2023-03-01T22:25:40;6.30;45.14
78915;SHT31;68314;49.782;9.418;2023-03-01T22:28:19;6.27;45.23
78915;SHT31;68314;49.782;9.418;2023-03-01T22:31:02;6.25;45.35
78915;SHT31;68314;49.782;9.418;2023-03-01T22:33:47;6.21;45.23
78915;SHT31;68314;49.782;9.418;2023-03-01T22:36:26;6.15;45.26
78915;SHT31;68314;49.782;9.418;2023-03-01T22:39:06;6.11;45.50
78915;SHT31;68314;49.782;9.418;2023-03-01T22:41:47;6.08;45.60
78915;SHT31;68314;49.782;9.418;2023-03-01T22:44:26;6.04;45.76
78915;SHT31;68314;49.782;9.418;2023-03-01T22:47:05;6.02;46.05
78915;SHT31;68314;49.782;9.418;2023-03-01T22:49:49;6.00;45.98
78915;SHT31;68314;49.782;9.418;2023-03-01T22:52:28;5.98;45.86
78915;SHT31;68314;49.782;9.418;2023-03-01T22:55:08;5.93;45.93
78915;SHT31;68314;49.782;9.418;2023-03-01T22:57:48;5.87;46.11
78915;SHT31;68314;49.782;9.418;2023-03-01T23:00:28;5.84;46.32
78915;SHT31;68314;49.782;9.418;2023-03-01T23:03:07;5.82;46.33
78915;SHT31;68314;49.782;9.418;2023-03-01T23:05:51;5.79;46.44
78915;SHT31;68314;49.782;9.418;2023-03-01T23:08:30;5.79;46.73
78915;SHT31;68314;49.782;9.418;2023-03-01T23:11:11;5.77;46.57
78915;SHT31;68314;49.782;9.418;2023-03-01T23:13:51;5.76;46.60
78915;SHT31;68314;49.782;9.418;2023-03-01T23:16:31;5.75;46.63
78915;SHT31;68314;49.782;9.418;2023-03-01T23:19:10;5.72;46.72
78915;SHT31;68314;49.782;9.418;2023-03-01T23:21:54;5.69;46.80
78915;SHT31;68314;49.782;9.418;2023-03-01T23:24:32;5.67;46.77
78915;SHT31;68314;49.782;9.418;2023-03-01T23:27:11;5.67;46.89
78915;SHT31;68314;49.782;9.418;2023-03-01T23:29:51;5.67;46.97
78915;SHT31;68314;49.782;9.418;2023-03-01T23:32:30;5.67;47.09
78915;SHT31;68314;49.782;9.418;2023-03-01T23:35:12;5.65;47.03
78915;SHT31;68314;49.782;9.418;2023-03-01T23:37:56;5.63;47.05
78915;SHT31;68314;49.782;9.418;2023-03-01T23:40:37;5.62;47.24
78915;SHT31;68314;49.782;9.418;2023-03-01T23:43:16;5.62;47.30
78915;SHT31;68314;49.782;9.418;2023-03-01T23:45:54;5.59;47.04
78915;SHT31;68314;49.782;9.418;2023-03-01T23:48:33;5.56;47.28
78915;SHT31;68314;49.782;9.418;2023-03-01T23:51:13;5.53;47.39
78915;SHT31;68314;49.782;9.418;2023-03-01T23:54:00;5.53;47.57
78915;SHT31;68314;49.782;9.418;2023-03-01T23:56:41;5.54;47.49
78915;SHT31;68314;49.782;9.418;2023-03-01T23:59:22;5.54;47.50
